Time;durP1;ratioP1;P1;durP2;ratioP2;P2;SDS_P1;SDS_P2;PMS_P1;PMS_P2;Temp;Humidity;BMP_temperature;BMP_pressure;BME280_temperature;BME280_humidity;BME280_pressure;Samples;Min_cycle;Max_cycle;Signal;HPM_P1;HPM_P2
2022/06/14 00:00:53;;;;;;;5.47;2.05;;;13.90;63.50;;;;;;5035945;28;20428;-77
2022/06/14 00:02:26;;;;;;;6.82;2.30;;;13.90;63.70;;;;;;5052908;28;20393;-78
2022/06/14 00:04:51;;;;;;;4.97;1.83;;;13.80;64.10;;;;;;5035539;28;20021;-78
2022/06/14 00:07:17;;;;;;;4.80;2.35;;;13.80;64.30;;;;;;5035650;28;20033;-78
2022/06/14 00:09:44;;;;;;;3.92;2.10;;;13.90;64.30;;;;;;5035430;28;20035;-78
2022/06/14 00:12:11;;;;;;;4.43;2.08;;;13.80;64.20;;;;;;5035197;28;20240;-78
2022/06/14 00:14:36;;;;;;;5.72;2.45;;;13.80;64.10;;;;;;5035444;28;20028;-77
2022/06/14 00:17:02;;;;;;;3.63;2.15;;;13.70;64.70;;;;;;5035340;28;20047;-78
2022/06/14 00:19:27;;;;;;;6.35;2.38;;;13.60;65.10;;;;;;5035072;28;20036;-79
2022/06/14 00:21:53;;;;;;;7.40;3.00;;;13.60;65.20;;;;;;5035442;28;20079;-79
2022/06/14 00:24:19;;;;;;;4.13;2.30;;;13.60;65.10;;;;;;5035554;28;20051;-75
2022/06/14 00:26:44;;;;;;;5.10;2.50;;;13.60;65.80;;;;;;5034371;28;20039;-76
2022/06/14 00:29:10;;;;;;;4.25;1.88;;;13.60;65.20;;;;;;5035357;28;20025;-75
2022/06/14 00:31:36;;;;;;;4.35;2.15;;;13.60;65.10;;;;;;5035168;28;20035;-76
2022/06/14 00:34:02;;;;;;;5.78;2.10;;;13.70;66.10;;;;;;5035124;28;20017;-76
2022/06/14 00:36:33;;;;;;;3.20;1.98;;;13.70;65.00;;;;;;5035110;28;20366;-76
2022/06/14 00:39:04;;;;;;;5.55;1.88;;;13.80;64.70;;;;;;5034972;28;20115;-76
2022/06/14 00:41:39;;;;;;;4.97;2.17;;;13.80;64.50;;;;;;5035337;28;20025;-77
2022/06/14 00:44:18;;;;;;;4.30;2.50;;;13.80;64.40;;;;;;5035336;28;20025;-76
2022/06/14 00:47:06;;;;;;;5.57;2.22;;;13.70;64.70;;;;;;5034842;28;20036;-76
2022/06/14 00:49:48;;;;;;;8.75;2.30;;;13.60;64.70;;;;;;5035321;28;20044;-76
2022/06/14 00:52:24;;;;;;;5.95;2.38;;;13.60;65.30;;;;;;5034998;28;20021;-76
2022/06/14 00:54:56;;;;;;;5.28;2.53;;;13.50;65.40;;;;;;5034667;28;20025;-77
2022/06/14 00:57:32;;;;;;;6.20;2.25;;;13.40;65.80;;;;;;5035239;28;20128;-77
2022/06/14 01:00:01;;;;;;;7.18;2.60;;;13.30;66.10;;;;;;5035305;28;20025;-76
2022/06/14 01:02:31;;;;;;;6.18;2.25;;;13.30;66.40;;;;;;5035105;28;20075;-76
2022/06/14 01:05:01;;;;;;;4.18;2.30;;;13.30;66.70;;;;;;5034748;28;20059;-75
2022/06/14 01:07:43;;;;;;;5.38;2.83;;;13.30;67.00;;;;;;5034804;28;20017;-76
2022/06/14 01:10:12;;;;;;;5.95;2.45;;;13.20;66.90;;;;;;5035227;28;20091;-75
2022/06/14 01:12:42;;;;;;;6.00;2.35;;;13.20;66.90;;;;;;5034705;28;20017;-76
2022/06/14 01:15:12;;;;;;;7.40;2.47;;;13.20;67.10;;;;;;5034935;28;20068;-75
2022/06/14 01:17:42;;;;;;;7.47;2.05;;;13.10;67.50;;;;;;5034749;28;20029;-76
2022/06/14 01:20:12;;;;;;;7.18;2.47;;;13.00;67.70;;;;;;5034764;28;20021;-76
2022/06/14 01:22:38;;;;;;;8.00;2.50;;;13.00;68.00;;;;;;5052659;28;20036;-75
2022/06/14 01:25:04;;;;;;;7.70;2.88;;;12.90;68.30;;;;;;5034971;28;20021;-75
2022/06/14 01:27:32;;;;;;;4.25;2.38;;;13.00;68.20;;;;;;5034775;28;20103;-75
2022/06/14 01:30:07;;;;;;;6.68;3.05;;;13.10;68.30;;;;;;5034913;28;20367;-77
2022/06/14 01:32:39;;;;;;;3.90;2.35;;;13.10;68.10;;;;;;5051278;28;20025;-77
2022/06/14 01:35:08;;;;;;;4.70;2.58;;;13.10;67.70;;;;;;5034672;28;20036;-76
2022/06/14 01:37:35;;;;;;;8.68;2.42;;;13.20;67.40;;;;;;5034832;28;20033;-76
2022/06/14 01:40:03;;;;;;;10.77;2.97;;;13.20;67.30;;;;;;5038260;28;20037;-76
2022/06/14 01:42:42;;;;;;;4.85;2.50;;;13.10;67.80;;;;;;5038577;28;20059;-75
2022/06/14 01:45:20;;;;;;;6.15;2.95;;;13.00;68.30;;;;;;5038002;28;20478;-76
2022/06/14 01:47:52;;;;;;;6.72;2.65;;;13.00;68.30;;;;;;5038534;28;20052;-76
2022/06/14 01:53:13;;;;;;;10.57;3.17;;;13.00;68.30;;;;;;5056133;28;20464;-77
2022/06/14 01:56:05;;;;;;;6.75;2.50;;;13.00;68.40;;;;;;5037853;28;20029;-77
2022/06/14 01:59:05;;;;;;;5.68;2.47;;;12.80;68.80;;;;;;5038004;28;20139;-77
2022/06/14 02:01:57;;;;;;;6.43;2.40;;;12.90;69.10;;;;;;5038188;28;20511;-76
2022/06/14 02:04:44;;;;;;;8.32;2.72;;;12.90;69.10;;;;;;5037380;28;20485;-77
2022/06/14 02:07:09;;;;;;;7.13;2.58;;;12.80;68.90;;;;;;5038104;28;20036;-76
2022/06/14 02:09:53;;;;;;;7.00;2.67;;;12.80;68.90;;;;;;5037882;28;20066;-77
2022/06/14 02:12:42;;;;;;;8.25;2.80;;;12.80;69.00;;;;;;5037985;28;20028;-77
2022/06/14 02:15:18;;;;;;;5.95;2.78;;;12.80;68.90;;;;;;5037088;28;20036;-77
2022/06/14 02:17:54;;;;;;;7.50;3.00;;;12.80;69.50;;;;;;5037510;28;20033;-77
2022/06/14 02:20:26;;;;;;;7.57;2.70;;;12.70;69.70;;;;;;5037648;28;20028;-77
2022/06/14 02:23:00;;;;;;;6.90;2.58;;;12.60;69.50;;;;;;5037906;28;20107;-77
2022/06/14 02:25:52;;;;;;;9.35;3.17;;;12.60;70.20;;;;;;5037402;28;20017;-77
2022/06/14 02:28:41;;;;;;;6.43;2.97;;;12.50;70.40;;;;;;5037163;28;20017;-77
2022/06/14 02:31:50;;;;;;;5.97;2.83;;;12.50;70.70;;;;;;5037101;28;20029;-77
2022/06/14 02:34:20;;;;;;;6.03;2.78;;;12.40;70.80;;;;;;5036312;28;20033;-77
2022/06/14 02:36:56;;;;;;;6.43;2.80;;;12.40;70.70;;;;;;5053812;28;20099;-77
2022/06/14 02:39:24;;;;;;;9.75;2.88;;;12.50;70.80;;;;;;5037169;28;20478;-76
2022/06/14 02:42:01;;;;;;;7.80;2.97;;;12.50;70.80;;;;;;5037155;28;20067;-77
2022/06/14 02:45:10;;;;;;;9.05;2.97;;;12.40;71.00;;;;;;5037350;28;20021;-77
2022/06/14 02:47:54;;;;;;;7.00;2.92;;;12.40;72.10;;;;;;5036240;28;20036;-77
2022/06/14 02:50:48;;;;;;;5.47;2.85;;;12.30;71.30;;;;;;5036438;28;20048;-78
2022/06/14 02:53:28;;;;;;;7.53;3.38;;;12.30;71.50;;;;;;5037306;28;20100;-77
2022/06/14 02:56:29;;;;;;;7.75;3.20;;;12.30;71.50;;;;;;5037052;28;20025;-77
2022/06/14 02:59:09;;;;;;;6.07;3.13;;;12.40;71.40;;;;;;5036198;28;20083;-76
2022/06/14 03:02:03;;;;;;;7.30;2.60;;;12.40;71.10;;;;;;5036375;28;20028;-76
2022/06/14 03:04:38;;;;;;;5.15;2.97;;;12.30;71.50;;;;;;5033057;28;20073;-76
2022/06/14 03:07:23;;;;;;;6.18;2.90;;;12.20;71.50;;;;;;5036767;28;20056;-76
2022/06/14 03:09:50;;;;;;;5.65;3.00;;;12.20;71.60;;;;;;5036622;28;20035;-77
2022/06/14 03:12:38;;;;;;;5.55;2.63;;;12.20;71.60;;;;;;5036588;28;20021;-77
2022/06/14 03:15:43;;;;;;;4.00;2.65;;;12.20;71.70;;;;;;5036552;28;20028;-76
2022/06/14 03:18:25;;;;;;;4.28;2.88;;;12.30;71.80;;;;;;5036318;28;20039;-76
2022/06/14 03:20:56;;;;;;;4.50;2.58;;;12.30;71.90;;;;;;5036159;28;20032;-77
2022/06/14 03:23:48;;;;;;;5.10;2.50;;;12.40;71.50;;;;;;5036630;28;20027;-77
2022/06/14 03:26:33;;;;;;;8.05;3.30;;;12.40;71.20;;;;;;5032547;28;20139;-76
2022/06/14 03:29:10;;;;;;;6.10;3.50;;;12.50;71.20;;;;;;5035937;28;20127;-76
2022/06/14 03:31:48;;;;;;;9.23;2.90;;;12.50;70.90;;;;;;5036368;28;20025;-76
2022/06/14 03:34:24;;;;;;;8.18;2.88;;;12.40;70.90;;;;;;5036078;28;20112;-77
2022/06/14 03:36:52;;;;;;;7.28;2.90;;;12.40;70.90;;;;;;5036026;28;20036;-76
2022/06/14 03:39:24;;;;;;;7.88;3.33;;;12.30;71.00;;;;;;5036239;28;20020;-77
2022/06/14 03:41:52;;;;;;;7.63;3.10;;;12.20;71.50;;;;;;5035595;28;20029;-77
2022/06/14 03:44:20;;;;;;;7.13;3.50;;;11.80;72.90;;;;;;5035831;28;20083;-76
2022/06/14 03:47:09;;;;;;;9.35;3.75;;;11.70;73.50;;;;;;5035920;28;20119;-77
2022/06/14 03:49:42;;;;;;;7.68;3.17;;;11.70;73.90;;;;;;5035531;28;20037;-77
2022/06/14 03:52:40;;;;;;;7.00;2.97;;;11.60;73.80;;;;;;5035619;28;20029;-76
2022/06/14 03:55:18;;;;;;;7.68;3.25;;;11.60;74.60;;;;;;5035724;28;20024;-76
2022/06/14 03:58:16;;;;;;;8.40;4.05;;;11.60;74.80;;;;;;5035614;28;20409;-77
2022/06/14 04:01:13;;;;;;;9.05;3.20;;;11.70;74.90;;;;;;5042383;28;20092;-76
2022/06/14 04:03:38;;;;;;;8.05;3.30;;;11.70;74.70;;;;;;5030414;28;20033;-77
2022/06/14 04:06:07;;;;;;;4.65;2.75;;;11.90;74.30;;;;;;5035576;28;20032;-77
2022/06/14 04:09:01;;;;;;;9.98;4.13;;;12.00;73.80;;;;;;5035416;28;20155;-77
2022/06/14 04:11:35;;;;;;;8.40;3.17;;;12.10;73.10;;;;;;5035757;28;20071;-76
2022/06/14 04:14:22;;;;;;;6.43;3.50;;;12.10;72.70;;;;;;5035009;28;20040;-76
2022/06/14 04:17:09;;;;;;;12.13;3.28;;;12.20;72.80;;;;;;5052793;28;20033;-77
2022/06/14 04:19:56;;;;;;;6.95;3.10;;;12.30;72.70;;;;;;5052642;28;20017;-78
2022/06/14 04:22:40;;;;;;;6.28;2.90;;;12.40;72.20;;;;;;5053028;28;20489;-76
2022/06/14 04:25:12;;;;;;;4.57;3.15;;;12.60;71.60;;;;;;5053164;28;20017;-77
2022/06/14 04:27:44;;;;;;;5.10;2.63;;;12.70;71.20;;;;;;5052766;28;20021;-76
2022/06/14 04:30:19;;;;;;;7.07;2.65;;;12.80;70.80;;;;;;5053009;28;20599;-77
2022/06/14 04:33:12;;;;;;;4.50;2.67;;;12.90;70.40;;;;;;5053044;28;20029;-76
2022/06/14 04:35:45;;;;;;;10.57;2.92;;;13.00;69.80;;;;;;5052921;28;20100;-76
2022/06/14 04:38:24;;;;;;;8.13;3.15;;;13.10;69.50;;;;;;5052699;28;20037;-77
2022/06/14 04:40:57;;;;;;;4.93;2.92;;;13.20;69.20;;;;;;5053005;28;20017;-77
2022/06/14 04:43:31;;;;;;;6.03;2.85;;;13.30;69.10;;;;;;5052944;28;20488;-78
2022/06/14 04:46:03;;;;;;;5.90;2.90;;;13.40;68.80;;;;;;5052684;28;20385;-78
2022/06/14 04:48:57;;;;;;;3.88;2.38;;;13.40;68.80;;;;;;5052734;28;20013;-77
2022/06/14 04:51:31;;;;;;;4.22;2.65;;;13.50;68.70;;;;;;5050358;28;20041;-78
2022/06/14 04:54:08;;;;;;;5.57;3.35;;;13.50;68.30;;;;;;5052917;28;20029;-78
2022/06/14 04:56:42;;;;;;;9.15;2.90;;;13.70;68.20;;;;;;5052996;28;20493;-78
2022/06/14 04:59:14;;;;;;;6.75;2.90;;;13.70;68.00;;;;;;5053342;28;20021;-79
2022/06/14 05:01:58;;;;;;;4.20;2.65;;;13.90;67.70;;;;;;5052852;28;20052;-79
2022/06/14 05:04:33;;;;;;;5.13;2.00;;;14.00;67.40;;;;;;5052590;28;20044;-79
2022/06/14 05:07:09;;;;;;;6.32;3.38;;;14.20;67.00;;;;;;5052706;28;20021;-79
2022/06/14 05:09:48;;;;;;;8.05;3.35;;;14.20;66.60;;;;;;5052531;28;20481;-79
2022/06/14 05:12:40;;;;;;;7.13;3.08;;;14.30;66.20;;;;;;5052501;28;20029;-79
2022/06/14 05:15:12;;;;;;;9.07;3.50;;;14.20;65.40;;;;;;5056613;28;20493;-79
2022/06/14 05:17:47;;;;;;;8.57;3.25;;;14.20;65.50;;;;;;5056443;28;20397;-79
2022/06/14 05:20:19;;;;;;;7.22;3.20;;;14.30;65.50;;;;;;5056519;28;20048;-80
2022/06/14 05:22:55;;;;;;;7.07;3.20;;;14.40;65.40;;;;;;5056321;28;20139;-79
2022/06/14 05:25:21;;;;;;;8.07;3.03;;;14.60;65.30;;;;;;5056481;28;20029;-79
2022/06/14 05:28:10;;;;;;;8.45;3.20;;;14.70;65.30;;;;;;5056329;28;20025;-78
2022/06/14 05:30:46;;;;;;;8.60;3.20;;;14.90;64.90;;;;;;5056112;28;20029;-78
2022/06/14 05:33:14;;;;;;;;;;;15.00;64.30;;;;;;5056585;28;20021;-78
2022/06/14 05:35:46;;;;;;;6.95;3.55;;;15.20;63.90;;;;;;5055961;28;19967;-79
2022/06/14 05:38:17;;;;;;;10.32;2.72;;;15.20;63.30;;;;;;5055958;28;20060;-78
2022/06/14 05:41:23;;;;;;;5.43;2.50;;;15.30;63.30;;;;;;5055973;28;20025;-78
2022/06/14 05:43:57;;;;;;;3.97;2.15;;;15.40;63.00;;;;;;5011654;28;20119;-78
2022/06/14 05:46:31;;;;;;;9.95;3.90;;;15.30;63.60;;;;;;5055958;28;20473;-78
2022/06/14 05:49:13;;;;;;;9.65;3.78;;;15.40;62.80;;;;;;5055754;28;20021;-78
2022/06/14 05:52:03;;;;;;;6.55;3.72;;;15.30;63.30;;;;;;5036077;28;20068;-78
2022/06/14 05:54:35;;;;;;;8.45;2.97;;;15.20;63.20;;;;;;5035938;28;20021;-79
2022/06/14 05:57:16;;;;;;;10.18;3.65;;;15.40;63.20;;;;;;5035479;28;20064;-77
2022/06/14 06:00:10;;;;;;;9.70;3.53;;;15.40;63.30;;;;;;5035814;28;20018;-78
2022/06/14 06:02:57;;;;;;;5.43;3.15;;;15.60;63.10;;;;;;5029923;28;20040;-78
2022/06/14 06:05:33;;;;;;;6.80;3.28;;;15.80;62.50;;;;;;5035744;28;20136;-78
2022/06/14 06:08:08;;;;;;;9.77;3.63;;;15.90;62.60;;;;;;5035529;28;20443;-78
2022/06/14 06:10:45;;;;;;;5.75;3.13;;;15.90;62.30;;;;;;5035565;28;20068;-78
2022/06/14 06:13:22;;;;;;;5.95;3.00;;;16.00;62.40;;;;;;5035608;28;20071;-78
2022/06/14 06:16:10;;;;;;;10.52;3.55;;;16.20;62.20;;;;;;5017380;28;20021;-78
2022/06/14 06:18:42;;;;;;;8.13;3.22;;;16.20;60.90;;;;;;5035269;28;20034;-78
2022/06/14 06:21:36;;;;;;;8.77;3.63;;;16.30;61.20;;;;;;5034985;28;20018;-78
2022/06/14 06:24:17;;;;;;;8.75;3.55;;;16.40;60.60;;;;;;5034695;28;20025;-78
2022/06/14 06:26:48;;;;;;;10.18;3.33;;;16.50;59.80;;;;;;5034415;28;20036;-78
2022/06/14 06:29:42;;;;;;;13.18;3.28;;;16.50;58.80;;;;;;5035140;28;20032;-78
2022/06/14 06:32:08;;;;;;;6.50;3.13;;;16.60;59.20;;;;;;5035203;28;20017;-77
2022/06/14 06:34:35;;;;;;;7.38;3.25;;;16.60;59.20;;;;;;5034874;28;20045;-77
2022/06/14 06:37:13;;;;;;;7.80;3.60;;;16.60;59.50;;;;;;5034785;28;20040;-77
2022/06/14 06:39:48;;;;;;;6.18;3.15;;;16.60;58.60;;;;;;5034917;28;20041;-77
2022/06/14 06:42:28;;;;;;;10.75;3.42;;;16.80;59.40;;;;;;5034760;28;20104;-77
2022/06/14 06:45:02;;;;;;;11.30;3.85;;;16.80;60.30;;;;;;5034657;28;20453;-77
2022/06/14 06:47:34;;;;;;;10.20;4.15;;;16.80;60.80;;;;;;5034817;28;20021;-77
2022/06/14 06:50:14;;;;;;;12.77;3.90;;;17.00;59.90;;;;;;5034536;28;20445;-77
2022/06/14 06:53:07;;;;;;;5.05;3.30;;;16.90;60.50;;;;;;5034408;28;20025;-77
2022/06/14 06:55:43;;;;;;;6.05;3.28;;;17.00;59.50;;;;;;5034537;28;20037;-76
2022/06/14 06:58:24;;;;;;;7.28;3.45;;;17.20;57.90;;;;;;5034204;28;20036;-76
2022/06/14 07:00:54;;;;;;;4.60;3.13;;;17.30;56.90;;;;;;5016469;28;20025;-76
2022/06/14 07:03:24;;;;;;;8.07;3.60;;;17.40;56.70;;;;;;5033733;28;20024;-76
2022/06/14 07:05:55;;;;;;;10.02;3.97;;;17.60;54.40;;;;;;5033741;28;20489;-75
2022/06/14 07:08:35;;;;;;;7.95;3.38;;;17.50;56.40;;;;;;5034170;28;20429;-76
2022/06/14 07:11:04;;;;;;;10.32;3.45;;;17.50;57.80;;;;;;5033645;28;20025;-74
2022/06/14 07:13:38;;;;;;;19.13;3.97;;;17.60;57.20;;;;;;5016144;28;20057;-75
2022/06/14 07:16:23;;;;;;;15.75;3.42;;;17.70;61.90;;;;;;5034014;28;20584;-74
2022/06/14 07:18:59;;;;;;;11.05;3.35;;;18.10;65.50;;;;;;5023638;28;20034;-75
2022/06/14 07:21:31;;;;;;;11.15;3.28;;;18.40;61.60;;;;;;5033722;28;20479;-78
2022/06/14 07:24:07;;;;;;;6.95;3.17;;;18.70;59.10;;;;;;5033888;28;20134;-76
2022/06/14 07:26:49;;;;;;;12.57;3.53;;;19.10;56.60;;;;;;5033742;28;20154;-74
2022/06/14 07:29:27;;;;;;;5.45;3.22;;;19.10;55.30;;;;;;5033495;28;20101;-75
2022/06/14 07:32:17;;;;;;;6.88;2.63;;;19.40;54.60;;;;;;5033357;28;20021;-75
2022/06/14 07:34:45;;;;;;;7.15;3.00;;;19.70;52.80;;;;;;5033434;28;20117;-82
2022/06/14 07:37:45;;;;;;;5.38;2.85;;;19.90;51.40;;;;;;5032911;28;20108;-76
2022/06/14 07:40:24;;;;;;;5.78;2.40;;;20.00;52.30;;;;;;5033675;28;20033;-82
2022/06/14 07:43:08;;;;;;;10.68;3.58;;;20.30;50.70;;;;;;5033064;28;20494;-75
2022/06/14 07:45:40;;;;;;;11.00;3.70;;;20.40;48.80;;;;;;5015486;28;20359;-73
2022/06/14 07:48:21;;;;;;;12.68;4.32;;;20.40;48.90;;;;;;5033261;28;20022;-74
2022/06/14 07:51:09;;;;;;;12.15;3.40;;;20.30;49.60;;;;;;5046966;28;20390;-74
2022/06/14 07:53:55;;;;;;;10.10;3.75;;;20.40;50.30;;;;;;5053399;28;20049;-75
2022/06/14 07:56:26;;;;;;;7.90;3.47;;;20.40;50.60;;;;;;5053269;28;20037;-74
2022/06/14 07:58:58;;;;;;;8.02;3.30;;;20.50;50.80;;;;;;5053374;28;20033;-74
2022/06/14 08:01:26;;;;;;;9.50;3.17;;;20.50;50.80;;;;;;5053265;28;20175;-75
2022/06/14 08:04:16;;;;;;;9.48;4.03;;;20.70;50.70;;;;;;5053285;28;20025;-79
2022/06/14 08:06:55;;;;;;;13.85;3.70;;;20.70;50.80;;;;;;5053219;28;20024;-75
2022/06/14 08:09:32;;;;;;;8.73;3.33;;;20.60;51.50;;;;;;5053032;28;20052;-75
2022/06/14 08:12:00;;;;;;;8.68;3.47;;;20.50;51.30;;;;;;5053143;28;20056;-75
2022/06/14 08:15:04;;;;;;;10.77;3.70;;;20.50;51.20;;;;;;5052833;28;20032;-75
2022/06/14 08:17:54;;;;;;;7.32;3.22;;;20.60;51.10;;;;;;5051762;28;20068;-75
2022/06/14 08:20:36;;;;;;;9.27;3.72;;;20.80;50.50;;;;;;5053204;28;20392;-74
2022/06/14 08:23:06;;;;;;;11.88;3.90;;;20.90;50.50;;;;;;5034892;28;20033;-74
2022/06/14 08:25:37;;;;;;;11.65;4.30;;;20.90;50.30;;;;;;5052685;28;20021;-75
2022/06/14 08:28:17;;;;;;;9.05;3.53;;;20.90;50.00;;;;;;5052595;28;20041;-74
2022/06/14 08:31:04;;;;;;;8.27;3.70;;;20.80;51.70;;;;;;5052715;28;20072;-74
2022/06/14 08:33:44;;;;;;;9.32;3.72;;;20.90;50.00;;;;;;5052615;28;20025;-78
2022/06/14 08:36:18;;;;;;;7.43;3.05;;;21.00;49.70;;;;;;5052603;28;20052;-74
2022/06/14 08:38:55;;;;;;;7.97;3.38;;;21.10;50.00;;;;;;5052549;28;20025;-75
2022/06/14 08:41:52;;;;;;;5.82;2.88;;;21.30;49.70;;;;;;5052416;28;20107;-75
2022/06/14 08:44:25;;;;;;;7.30;2.83;;;21.60;48.40;;;;;;5052645;28;20021;-81
2022/06/14 08:46:56;;;;;;;6.63;2.72;;;21.70;47.50;;;;;;5052862;28;20024;-81
2022/06/14 08:50:08;;;;;;;7.50;3.15;;;21.90;45.40;;;;;;5051900;28;20021;-76
2022/06/14 08:53:01;;;;;;;8.60;3.20;;;22.10;45.30;;;;;;5052703;28;20100;-83
2022/06/14 08:55:41;;;;;;;11.15;2.88;;;22.30;45.10;;;;;;5053131;28;20029;-82
2022/06/14 08:58:25;;;;;;;8.90;3.20;;;22.60;45.00;;;;;;5052716;28;20112;-77
2022/06/14 09:01:18;;;;;;;7.20;2.78;;;22.60;43.90;;;;;;5052706;28;20021;-75
2022/06/14 09:04:15;;;;;;;6.97;3.28;;;22.40;44.30;;;;;;5052614;28;20017;-82
2022/06/14 09:07:11;;;;;;;5.57;2.70;;;22.10;46.00;;;;;;5052932;28;20029;-81
2022/06/14 09:10:03;;;;;;;5.93;2.83;;;22.00;44.60;;;;;;5035287;28;20047;-81
2022/06/14 09:12:48;;;;;;;6.10;2.85;;;22.00;44.60;;;;;;5052697;28;20023;-80
2022/06/14 09:15:32;;;;;;;5.65;3.28;;;21.90;45.70;;;;;;5052091;28;20532;-75
2022/06/14 09:18:28;;;;;;;8.88;3.10;;;22.00;45.50;;;;;;5052179;28;20374;-76
2022/06/14 09:21:16;;;;;;;6.72;2.97;;;22.10;45.60;;;;;;5052238;28;20156;-75
2022/06/14 09:24:09;;;;;;;12.20;3.13;;;22.00;45.00;;;;;;5052447;28;20464;-77
2022/06/14 09:27:13;;;;;;;6.05;2.72;;;22.10;46.10;;;;;;5052097;28;20469;-74
2022/06/14 09:30:20;;;;;;;7.68;3.28;;;22.20;44.20;;;;;;5052044;28;20084;-75
2022/06/14 09:33:30;;;;;;;6.38;2.40;;;22.40;42.70;;;;;;5051844;28;20401;-75
2022/06/14 09:36:31;;;;;;;4.32;2.80;;;22.70;42.40;;;;;;5052287;28;20026;-76
2022/06/14 09:39:35;;;;;;;6.53;2.78;;;22.80;42.50;;;;;;5052081;28;20389;-78
2022/06/14 09:42:00;;;;;;;5.00;2.53;;;23.00;42.50;;;;;;5052480;28;20028;-75
2022/06/14 09:45:16;;;;;;;7.43;2.90;;;23.20;42.70;;;;;;5052373;28;20025;-75
2022/06/14 09:48:09;;;;;;;4.90;2.73;;;23.10;40.50;;;;;;5007930;28;20040;-77
2022/06/14 09:51:04;;;;;;;7.70;3.35;;;23.10;41.30;;;;;;5052336;28;20049;-83
2022/06/14 09:53:44;;;;;;;6.90;2.97;;;23.20;42.40;;;;;;5051971;28;20100;-77
2022/06/14 09:56:29;;;;;;;15.48;4.20;;;23.30;41.50;;;;;;5052042;28;20378;-75
2022/06/14 09:59:17;;;;;;;18.42;5.00;;;23.40;41.20;;;;;;5034152;28;20058;-75
2022/06/14 10:01:53;;;;;;;21.88;6.47;;;23.40;39.90;;;;;;5055598;28;20025;-76
2022/06/14 10:04:51;;;;;;;6.45;3.25;;;23.10;41.10;;;;;;5055346;28;20059;-75
2022/06/14 10:07:25;;;;;;;18.20;4.35;;;22.80;40.70;;;;;;5013958;28;20037;-75
2022/06/14 10:10:06;;;;;;;8.23;3.57;;;22.60;43.50;;;;;;5055069;28;20021;-74
2022/06/14 10:12:57;;;;;;;7.93;3.08;;;22.80;43.10;;;;;;5055300;28;20489;-80
2022/06/14 10:16:12;;;;;;;9.25;3.08;;;22.80;41.50;;;;;;5037172;28;20404;-86
2022/06/14 10:18:58;;;;;;;9.80;3.17;;;22.80;41.50;;;;;;4981857;28;20045;-76
2022/06/14 10:21:31;;;;;;;8.38;2.78;;;23.00;41.30;;;;;;5054809;28;20109;-82
2022/06/14 10:24:04;;;;;;;8.93;2.80;;;23.20;41.30;;;;;;5054778;28;20029;-75
2022/06/14 10:30:15;;;;;;;4.47;2.45;;;23.50;39.10;;;;;;5055107;28;20024;-78
2022/06/14 10:32:59;;;;;;;7.22;2.53;;;23.70;39.10;;;;;;5054914;28;20029;-85
2022/06/14 10:35:53;;;;;;;4.85;2.30;;;24.00;40.50;;;;;;5054890;28;20025;-76
2022/06/14 10:38:43;;;;;;;8.25;3.00;;;24.30;38.40;;;;;;5056477;28;20033;-76
2022/06/14 10:41:20;;;;;;;7.88;2.30;;;24.40;36.90;;;;;;5056280;28;20025;-85
2022/06/14 10:43:55;;;;;;;7.22;2.42;;;24.50;36.80;;;;;;5055060;28;20108;-79
2022/06/14 10:46:29;;;;;;;6.72;2.38;;;24.60;37.50;;;;;;5055580;28;20036;-80
2022/06/14 10:49:13;;;;;;;6.10;2.33;;;24.80;36.80;;;;;;5058314;28;20067;-83
2022/06/14 10:52:02;;;;;;;4.90;2.25;;;25.00;36.90;;;;;;5058098;28;20033;-81
2022/06/14 10:54:49;;;;;;;6.32;2.40;;;25.20;37.70;;;;;;5058392;28;20053;-84
2022/06/14 10:57:26;;;;;;;5.47;2.33;;;25.40;36.80;;;;;;5056442;28;20033;-85
2022/06/14 11:00:20;;;;;;;5.93;2.42;;;25.50;36.30;;;;;;5055236;28;20394;-77
2022/06/14 11:03:15;;;;;;;7.07;2.58;;;25.50;34.90;;;;;;5054752;28;20021;-75
2022/06/14 11:06:08;;;;;;;3.75;2.30;;;25.20;36.00;;;;;;5054469;28;20047;-76
2022/06/14 11:08:52;;;;;;;6.70;2.72;;;25.20;36.10;;;;;;5054691;28;20068;-82
2022/06/14 11:11:42;;;;;;;10.27;2.80;;;25.20;35.50;;;;;;5053850;28;20021;-76
2022/06/14 11:14:32;;;;;;;6.50;2.45;;;25.00;36.80;;;;;;5054423;28;20021;-75
2022/06/14 11:17:32;;;;;;;6.32;2.60;;;24.50;37.40;;;;;;5054248;28;20417;-76
2022/06/14 11:20:13;;;;;;;7.68;2.22;;;24.60;38.70;;;;;;5036329;28;20028;-74
2022/06/14 11:22:48;;;;;;;6.95;2.45;;;25.00;38.00;;;;;;5054194;28;20049;-78
2022/06/14 11:25:14;;;;;;;11.18;2.53;;;25.50;37.60;;;;;;5054163;28;20048;-77
2022/06/14 11:28:01;;;;;;;10.60;2.83;;;25.80;36.00;;;;;;5054077;28;20080;-77
2022/06/14 11:30:57;;;;;;;5.93;2.67;;;25.80;34.50;;;;;;5053950;28;20063;-78
2022/06/14 11:33:48;;;;;;;7.60;2.83;;;25.70;34.00;;;;;;5053924;28;20025;-78
2022/06/14 11:36:38;;;;;;;7.28;2.53;;;25.50;35.10;;;;;;5053703;28;20048;-78
2022/06/14 11:39:27;;;;;;;7.38;2.40;;;25.60;34.70;;;;;;5053778;28;20033;-78
2022/06/14 11:41:54;;;;;;;6.40;2.40;;;25.80;35.10;;;;;;5053581;28;20485;-78
2022/06/14 11:44:55;;;;;;;5.43;2.30;;;26.10;36.50;;;;;;5053507;28;20036;-77
2022/06/14 11:47:33;;;;;;;9.75;2.58;;;26.00;34.00;;;;;;5053389;28;20013;-78
2022/06/14 11:50:25;;;;;;;4.68;2.03;;;25.70;34.70;;;;;;5053361;28;20049;-80
2022/06/14 11:53:21;;;;;;;4.25;1.95;;;26.00;35.80;;;;;;5053937;28;20075;-79
2022/06/14 11:56:23;;;;;;;4.32;1.90;;;26.50;33.70;;;;;;5053407;28;20035;-79
2022/06/14 11:59:11;;;;;;;5.32;2.00;;;26.40;34.80;;;;;;5052653;28;20124;-78
2022/06/14 12:01:46;;;;;;;6.90;2.30;;;26.60;32.80;;;;;;5053338;28;20021;-78
2022/06/14 12:04:27;;;;;;;6.07;2.28;;;26.80;31.60;;;;;;5053197;28;20025;-78
2022/06/14 12:07:01;;;;;;;6.30;2.28;;;27.10;33.80;;;;;;5053212;28;20021;-78
2022/06/14 12:09:45;;;;;;;6.25;2.30;;;27.40;32.50;;;;;;5053263;28;20079;-80
2022/06/14 12:12:15;;;;;;;5.07;2.20;;;27.20;32.60;;;;;;5035096;28;20025;-79
2022/06/14 12:15:01;;;;;;;3.95;2.10;;;27.30;31.40;;;;;;5053105;28;20111;-80
2022/06/14 12:17:39;;;;;;;5.45;2.20;;;27.20;30.40;;;;;;5053010;28;20469;-78
2022/06/14 12:20:08;;;;;;;3.88;2.20;;;27.20;31.30;;;;;;5053004;28;20017;-79
2022/06/14 12:23:01;;;;;;;3.20;1.75;;;27.20;31.40;;;;;;5052003;28;20183;-78
2022/06/14 12:28:36;;;;;;;6.28;2.15;;;27.70;30.20;;;;;;5053062;28;20477;-81
2022/06/14 12:31:15;;;;;;;5.18;2.10;;;28.00;31.00;;;;;;5052651;28;20029;-78
2022/06/14 12:33:50;;;;;;;10.05;2.35;;;28.00;28.40;;;;;;5052727;28;20111;-79
2022/06/14 12:36:43;;;;;;;2.63;1.70;;;28.10;30.20;;;;;;5034615;28;20035;-78
2022/06/14 12:39:18;;;;;;;4.70;2.13;;;28.40;30.00;;;;;;5052633;28;20417;-78
2022/06/14 12:41:54;;;;;;;5.65;2.15;;;28.50;28.50;;;;;;5052743;28;20064;-78
2022/06/14 12:44:49;;;;;;;3.55;1.77;;;28.60;28.30;;;;;;5052685;28;20537;-79
2022/06/14 12:47:24;;;;;;;3.67;2.03;;;28.40;29.60;;;;;;5052526;28;20412;-78
2022/06/14 12:49:53;;;;;;;5.63;2.40;;;28.60;30.40;;;;;;5052404;28;20493;-79
2022/06/14 12:52:36;;;;;;;4.45;2.17;;;28.60;28.00;;;;;;5034649;28;20029;-78
2022/06/14 12:55:17;;;;;;;4.85;2.17;;;28.00;28.90;;;;;;5052573;28;20079;-80
2022/06/14 12:58:36;;;;;;;6.88;2.58;;;27.80;29.70;;;;;;5052339;28;20056;-78
2022/06/14 13:01:26;;;;;;;5.70;2.47;;;27.30;29.10;;;;;;4971567;28;20038;-78
2022/06/14 13:03:57;;;;;;;4.75;2.08;;;27.50;30.70;;;;;;5048804;28;20366;-79
2022/06/14 13:06:53;;;;;;;6.90;2.25;;;27.70;30.50;;;;;;5052327;28;20079;-79
2022/06/14 13:09:46;;;;;;;4.30;2.20;;;27.60;30.70;;;;;;5052429;28;20025;-80
2022/06/14 13:12:36;;;;;;;6.22;2.38;;;27.80;30.20;;;;;;5052380;28;20531;-79
2022/06/14 13:15:21;;;;;;;6.20;2.20;;;27.80;29.80;;;;;;5052295;28;20028;-80
2022/06/14 13:17:53;;;;;;;6.18;2.53;;;28.30;30.10;;;;;;5052382;28;20036;-83
2022/06/14 13:20:52;;;;;;;6.63;2.10;;;28.60;28.00;;;;;;5052129;28;20025;-85
2022/06/14 13:23:52;;;;;;;5.25;2.20;;;27.90;27.20;;;;;;5052177;28;20326;-83
2022/06/14 13:26:38;;;;;;;4.22;2.45;;;28.00;28.80;;;;;;5052443;28;20021;-84
2022/06/14 13:29:20;;;;;;;5.25;2.05;;;27.90;29.10;;;;;;5052366;28;20036;-84
2022/06/14 13:31:59;;;;;;;3.65;2.28;;;27.80;29.00;;;;;;5052276;28;20021;-84
2022/06/14 13:34:37;;;;;;;5.53;2.20;;;27.70;29.90;;;;;;5035315;28;20025;-84
2022/06/14 13:37:54;;;;;;;5.07;2.40;;;27.60;29.80;;;;;;5055851;28;20067;-83
2022/06/14 13:40:35;;;;;;;4.32;1.80;;;27.70;29.80;;;;;;4975306;28;20030;-85
2022/06/14 13:43:20;;;;;;;4.25;2.20;;;27.80;29.50;;;;;;4975623;28;20037;-87
2022/06/14 13:45:54;;;;;;;5.03;2.10;;;27.80;28.60;;;;;;5039429;28;20040;-87
2022/06/14 13:48:32;;;;;;;3.40;1.95;;;28.10;29.10;;;;;;5056105;28;20525;-86
2022/06/14 13:51:22;;;;;;;5.10;2.58;;;27.60;30.00;;;;;;5038169;28;20053;-84
2022/06/14 13:54:13;;;;;;;8.15;2.38;;;27.80;28.80;;;;;;5055918;28;20432;-86
2022/06/14 13:57:19;;;;;;;3.80;1.83;;;27.80;29.40;;;;;;5056064;28;20036;-84
2022/06/14 13:59:48;;;;;;;5.97;2.67;;;28.00;29.20;;;;;;5055745;28;20021;-86
2022/06/14 14:02:43;;;;;;;5.18;2.20;;;28.20;28.90;;;;;;5055486;28;20414;-86
2022/06/14 14:05:22;;;;;;;7.28;1.73;;;28.40;28.80;;;;;;5051772;28;20563;-84